KILN/ILN METAR and TAF weather

Enter ICAO airport designator
Station Type Date Time Source
KILN METAR 2023/09/21 16:54 UTC NOAA

KILN 211654Z AUTO VRB04KT 10SM CLR 26/12 A3025 RMK AO2 SLP238 T02560122


Station Type Date Time Source
KILN Decoded METAR 2023/09/21 16:54 UTC NOAA

WILMINGTON INDUSTRIAL AIRPORT , OH, United States (KILN) 39-26N 083-47W 332M
Sep 21, 2023 - 12:54 PM EDT / 2023.09.21 1654 UTC
Wind: Variable at 5 MPH (4 KT):0
Visibility: 10 mile(s):0
Sky conditions: clear
Temperature: 78.1 F (25.6 C)
Dew Point: 54.0 F (12.2 C)
Relative Humidity: 43%
Pressure (altimeter): 30.25 in. Hg (1024 hPa)
ob: KILN 211654Z AUTO VRB04KT 10SM CLR 26/12 A3025 RMK AO2 SLP238 T02560122
cycle: 17

Station Type Date Time Source
KILN TAF 2023/09/21 18:27 UTC NOAA

TAF KILN 211724Z 2118/2218 09006KT P6SM BKN250
FM221600 07009KT P6SM BKN200

Example: see airport list